Mable, Pennsylvania
Current Conditions -  °F | °C
As of 3:15 AM on Monday 24 Nov 2014 (Local Time) from KHZL Reporting Station
Moderate Rain Moderate Rain  
Wind Chill: 54°   Ceiling: 500
Heat Index: 54°   Visibility: 4mi
Dew Point: 52°   Wind: 15mph
Humidity: 94%   Direction: 130°SE
Pressure: 29.64"   Gusts: 30mph
Location:  40.7564°N, 76.3531°W
Report Text: KHZL 240815Z AUTO 13013G26KT 4SM RA OVC005 12/11 A2964 RMK AO2
Loading
Personal Weather Stations






























Interactive Weather Map New forecast layout! Learn more

10-Day Weather Forecast

Advertisements
Track Severe Weather on mobile